Time;durP1;ratioP1;P1;durP2;ratioP2;P2;SDS_P1;SDS_P2;PMS_P1;PMS_P2;Temp;Humidity;BMP_temperature;BMP_pressure;BME280_temperature;BME280_humidity;BME280_pressure;Samples;Min_cycle;Max_cycle;Signal;HPM_P1;HPM_P2
2021/04/27 00:01:11;;;;;;;3.97;0.90;;;9.80;52.90;;;;;;4954520;28;20385;-75
2021/04/27 00:03:37;;;;;;;2.60;1.48;;;9.80;53.10;;;;;;4954365;28;20094;-74
2021/04/27 00:06:03;;;;;;;2.90;1.00;;;9.80;53.20;;;;;;4955156;28;20186;-75
2021/04/27 00:08:29;;;;;;;2.22;1.10;;;9.80;53.20;;;;;;4954252;28;20070;-75
2021/04/27 00:10:55;;;;;;;2.65;1.30;;;9.80;53.90;;;;;;4954921;28;20042;-75
2021/04/27 00:13:21;;;;;;;1.90;1.08;;;9.80;53.60;;;;;;4953443;29;20476;-75
2021/04/27 00:15:46;;;;;;;3.13;1.13;;;9.80;53.60;;;;;;4968745;28;20027;-75
2021/04/27 00:18:12;;;;;;;2.53;1.08;;;9.70;53.50;;;;;;4954747;28;20114;-75
2021/04/27 00:20:38;;;;;;;1.88;1.05;;;9.70;53.60;;;;;;4953795;29;20027;-75
2021/04/27 00:23:03;;;;;;;2.42;1.55;;;9.70;53.70;;;;;;4953253;28;20082;-75
2021/04/27 00:25:29;;;;;;;1.92;0.90;;;9.70;53.70;;;;;;4953754;28;20110;-74
2021/04/27 00:27:56;;;;;;;2.63;0.90;;;9.70;53.70;;;;;;4954489;28;20035;-74
2021/04/27 00:30:26;;;;;;;1.45;1.05;;;9.60;53.80;;;;;;4954603;28;20094;-75
2021/04/27 00:32:52;;;;;;;3.60;1.15;;;9.60;54.10;;;;;;4953292;29;20329;-74
2021/04/27 00:35:18;;;;;;;2.60;0.90;;;9.60;54.10;;;;;;4985269;28;20066;-74
2021/04/27 00:37:44;;;;;;;1.83;1.00;;;9.50;54.00;;;;;;4952392;28;20027;-75
2021/04/27 00:40:13;;;;;;;1.58;1.00;;;9.50;54.10;;;;;;4954258;28;20055;-74
2021/04/27 00:42:41;;;;;;;2.85;1.25;;;9.50;54.40;;;;;;4953303;28;20027;-75
2021/04/27 00:45:09;;;;;;;3.45;1.52;;;9.50;54.40;;;;;;4954213;28;20015;-75
2021/04/27 00:47:36;;;;;;;1.48;0.82;;;9.50;54.50;;;;;;4953571;28;20023;-75
2021/04/27 00:50:03;;;;;;;1.88;0.95;;;9.40;54.50;;;;;;4954385;28;20040;-74
2021/04/27 00:52:29;;;;;;;2.97;1.23;;;9.40;54.60;;;;;;4953177;28;20043;-74
2021/04/27 00:54:55;;;;;;;1.67;0.93;;;9.40;54.60;;;;;;4954114;28;20023;-75
2021/04/27 00:57:21;;;;;;;1.65;0.98;;;9.40;54.70;;;;;;4953979;29;20024;-75
2021/04/27 00:59:47;;;;;;;2.47;1.13;;;9.40;54.80;;;;;;4952148;28;20024;-75
2021/04/27 01:02:13;;;;;;;1.77;1.00;;;9.30;54.80;;;;;;4952111;28;20063;-75
2021/04/27 01:04:38;;;;;;;3.00;1.25;;;9.30;55.00;;;;;;4953214;28;20487;-73
2021/04/27 01:07:04;;;;;;;1.77;1.00;;;9.30;55.10;;;;;;4954049;28;20027;-74
2021/04/27 01:09:43;;;;;;;3.50;1.15;;;9.30;55.00;;;;;;4953203;29;20083;-75
2021/04/27 01:12:27;;;;;;;2.50;1.30;;;9.30;55.00;;;;;;4953726;28;20039;-73
2021/04/27 01:15:21;;;;;;;3.15;1.20;;;9.30;55.10;;;;;;4953181;28;20023;-74
2021/04/27 01:17:48;;;;;;;2.60;1.30;;;9.30;55.00;;;;;;4952726;28;20036;-75
2021/04/27 01:20:16;;;;;;;2.60;1.13;;;9.30;55.10;;;;;;4953629;28;20023;-75
2021/04/27 01:22:54;;;;;;;2.53;1.20;;;9.30;55.30;;;;;;4951829;29;20444;-75
2021/04/27 01:25:32;;;;;;;2.35;1.17;;;9.30;55.40;;;;;;4953403;29;20110;-75
2021/04/27 01:27:58;;;;;;;2.53;1.30;;;9.20;55.30;;;;;;4954140;28;20027;-74
2021/04/27 01:30:24;;;;;;;2.00;1.40;;;9.10;55.40;;;;;;4953416;28;20508;-75
2021/04/27 01:32:50;;;;;;;3.13;1.08;;;9.20;55.50;;;;;;4952534;28;20118;-74
2021/04/27 01:35:18;;;;;;;2.08;1.02;;;9.10;55.50;;;;;;4953570;28;20023;-74
2021/04/27 01:37:44;;;;;;;2.15;1.17;;;9.10;55.50;;;;;;4952898;28;20122;-74
2021/04/27 01:40:10;;;;;;;1.90;1.33;;;9.10;55.70;;;;;;4951921;29;20038;-74
2021/04/27 01:42:36;;;;;;;2.15;1.38;;;9.10;55.70;;;;;;4952955;28;20027;-75
2021/04/27 01:45:03;;;;;;;2.30;1.17;;;9.10;55.80;;;;;;4953490;28;20417;-75
2021/04/27 01:47:29;;;;;;;4.30;1.20;;;9.10;55.80;;;;;;4953568;28;20023;-75
2021/04/27 01:49:55;;;;;;;4.45;1.90;;;9.00;56.00;;;;;;4951580;29;20028;-75
2021/04/27 01:52:22;;;;;;;3.53;1.27;;;9.00;56.00;;;;;;4953058;28;20042;-75
2021/04/27 01:54:47;;;;;;;2.55;1.20;;;9.00;56.00;;;;;;4952575;28;20038;-75
2021/04/27 01:57:16;;;;;;;2.50;1.20;;;9.00;56.10;;;;;;4953369;28;20027;-75
2021/04/27 01:59:41;;;;;;;1.38;1.00;;;8.90;56.20;;;;;;4967443;28;20126;-75
2021/04/27 02:02:07;;;;;;;2.40;1.10;;;8.90;56.20;;;;;;4967798;28;20091;-75
2021/04/27 02:04:32;;;;;;;3.97;1.27;;;8.90;56.20;;;;;;4951415;28;20126;-75
2021/04/27 02:06:58;;;;;;;6.43;1.55;;;8.90;56.30;;;;;;4957041;29;20136;-75
2021/04/27 02:09:26;;;;;;;2.55;1.20;;;8.90;56.30;;;;;;4956583;29;20023;-75
2021/04/27 02:11:53;;;;;;;2.50;1.48;;;8.90;56.40;;;;;;4956215;28;20073;-74
2021/04/27 02:14:22;;;;;;;3.97;1.40;;;8.90;56.30;;;;;;4956791;28;20085;-74
2021/04/27 02:17:15;;;;;;;2.13;1.20;;;8.90;56.50;;;;;;4956160;28;20027;-74
2021/04/27 02:19:41;;;;;;;2.38;1.10;;;8.80;56.50;;;;;;4955891;29;20358;-75
2021/04/27 02:22:08;;;;;;;3.70;1.30;;;8.80;56.60;;;;;;4956570;28;20464;-75
2021/04/27 02:24:37;;;;;;;3.80;1.10;;;8.80;56.60;;;;;;4956132;28;20031;-74
2021/04/27 02:27:04;;;;;;;4.13;1.20;;;8.80;56.80;;;;;;4956666;28;20058;-75
2021/04/27 02:29:31;;;;;;;2.65;1.30;;;8.80;56.90;;;;;;4955113;28;20487;-74
2021/04/27 02:31:58;;;;;;;2.85;1.13;;;8.80;56.80;;;;;;4955904;28;20035;-76
2021/04/27 02:34:25;;;;;;;3.40;1.27;;;8.80;56.80;;;;;;4955193;28;20131;-74
2021/04/27 02:36:52;;;;;;;3.50;1.30;;;8.70;56.80;;;;;;4955829;28;20110;-75
2021/04/27 02:39:19;;;;;;;2.47;1.50;;;8.70;56.80;;;;;;4956264;28;20026;-75
2021/04/27 02:41:46;;;;;;;1.30;1.20;;;8.70;57.00;;;;;;4955793;28;20082;-75
2021/04/27 02:44:12;;;;;;;3.20;1.50;;;8.70;57.00;;;;;;4956553;28;20031;-74
2021/04/27 02:46:39;;;;;;;6.30;1.40;;;8.70;57.10;;;;;;4955605;28;20031;-75
2021/04/27 02:49:05;;;;;;;1.83;1.20;;;8.70;57.10;;;;;;4956250;28;20031;-74
2021/04/27 02:51:32;;;;;;;4.28;1.42;;;8.60;57.10;;;;;;4955082;29;20038;-74
2021/04/27 02:53:58;;;;;;;2.30;1.40;;;8.60;57.00;;;;;;4955570;28;20019;-75
2021/04/27 02:56:25;;;;;;;2.15;1.30;;;8.60;57.10;;;;;;4955849;28;20143;-75
2021/04/27 02:58:52;;;;;;;4.20;1.80;;;8.60;57.20;;;;;;4955456;29;20023;-75
2021/04/27 03:01:17;;;;;;;3.15;1.52;;;8.60;57.20;;;;;;4954511;29;20399;-75
2021/04/27 03:03:43;;;;;;;3.00;1.48;;;8.50;57.20;;;;;;4955462;29;20460;-74
2021/04/27 03:06:09;;;;;;;4.85;1.70;;;8.60;57.30;;;;;;4970396;28;20023;-74
2021/04/27 03:08:34;;;;;;;2.33;1.30;;;8.50;57.30;;;;;;4955953;28;20031;-74
2021/04/27 03:11:01;;;;;;;1.30;1.20;;;8.50;57.40;;;;;;4955213;29;20056;-75
2021/04/27 03:13:26;;;;;;;2.20;1.48;;;8.50;57.40;;;;;;4955747;28;20035;-75
2021/04/27 03:15:52;;;;;;;3.15;1.55;;;8.50;57.40;;;;;;4955032;28;20193;-74
2021/04/27 03:18:18;;;;;;;2.55;1.27;;;8.50;57.40;;;;;;4954651;29;20375;-75
2021/04/27 03:20:44;;;;;;;3.47;1.73;;;8.50;57.50;;;;;;4955142;29;20087;-75
2021/04/27 03:23:10;;;;;;;2.60;1.23;;;8.50;57.40;;;;;;4955621;28;20105;-74
2021/04/27 03:25:37;;;;;;;2.30;1.20;;;8.50;57.50;;;;;;4970323;28;20023;-74
2021/04/27 03:28:07;;;;;;;4.05;1.10;;;8.50;57.50;;;;;;4953628;28;20357;-74
2021/04/27 03:30:33;;;;;;;4.72;1.33;;;8.50;57.50;;;;;;4955887;28;20031;-75
2021/04/27 03:32:59;;;;;;;4.75;1.55;;;8.50;57.60;;;;;;4954827;28;20141;-74
2021/04/27 03:35:25;;;;;;;2.17;1.63;;;8.50;57.60;;;;;;4955494;29;20066;-75
2021/04/27 03:37:51;;;;;;;4.05;1.50;;;8.40;57.50;;;;;;4954796;29;20102;-75
2021/04/27 03:40:17;;;;;;;1.55;1.00;;;8.40;57.60;;;;;;4955660;29;20086;-74
2021/04/27 03:42:43;;;;;;;3.75;1.45;;;8.40;57.70;;;;;;4955036;28;20035;-74
2021/04/27 03:45:12;;;;;;;3.35;1.48;;;8.40;57.70;;;;;;4955166;29;20081;-75
2021/04/27 03:47:39;;;;;;;2.97;1.50;;;8.40;57.80;;;;;;4955502;28;20024;-75
2021/04/27 03:50:06;;;;;;;2.80;1.58;;;8.30;57.80;;;;;;4954797;28;20032;-75
2021/04/27 03:52:32;;;;;;;3.75;1.52;;;8.30;57.80;;;;;;4954747;28;20027;-75
2021/04/27 03:54:58;;;;;;;5.32;2.03;;;8.30;57.90;;;;;;4954426;29;20030;-75
2021/04/27 03:57:24;;;;;;;4.15;1.63;;;8.30;57.90;;;;;;4954949;29;20481;-75
2021/04/27 03:59:49;;;;;;;2.22;1.40;;;8.30;57.90;;;;;;4954004;28;20393;-75
2021/04/27 04:02:15;;;;;;;5.45;1.58;;;8.20;57.90;;;;;;4985510;28;20138;-75
2021/04/27 04:04:40;;;;;;;3.40;1.33;;;8.20;58.00;;;;;;4954694;28;20404;-75
2021/04/27 04:07:06;;;;;;;2.20;1.63;;;8.20;58.60;;;;;;4954430;29;20086;-75
2021/04/27 04:09:32;;;;;;;3.13;1.60;;;8.20;57.90;;;;;;4954855;28;20460;-75
2021/04/27 04:11:57;;;;;;;7.80;1.77;;;8.20;58.00;;;;;;4954039;28;20457;-74
2021/04/27 04:14:23;;;;;;;2.70;1.50;;;8.20;58.00;;;;;;4954717;29;20038;-75
2021/04/27 04:16:49;;;;;;;4.03;1.63;;;8.20;58.00;;;;;;4954040;28;20126;-75
2021/04/27 04:19:14;;;;;;;2.92;1.27;;;8.20;58.00;;;;;;4954486;29;20095;-75
2021/04/27 04:21:42;;;;;;;7.30;2.28;;;8.10;58.00;;;;;;4954508;29;20031;-74
2021/04/27 04:24:09;;;;;;;4.47;2.10;;;8.10;58.10;;;;;;4953240;29;20034;-75
2021/04/27 04:26:34;;;;;;;3.65;1.50;;;8.10;58.10;;;;;;4954462;28;20111;-75
2021/04/27 04:29:00;;;;;;;5.57;2.67;;;8.10;58.10;;;;;;4953239;28;20059;-74
2021/04/27 04:31:26;;;;;;;5.35;1.45;;;8.10;58.20;;;;;;4954265;29;20031;-74
2021/04/27 04:33:51;;;;;;;2.90;1.38;;;8.10;58.20;;;;;;4953772;29;20027;-75
2021/04/27 04:36:17;;;;;;;1.95;1.30;;;8.10;58.20;;;;;;4954598;28;20016;-75
2021/04/27 04:38:43;;;;;;;5.03;2.05;;;8.10;58.30;;;;;;4953938;29;20376;-74
2021/04/27 04:41:10;;;;;;;3.30;1.70;;;8.10;58.30;;;;;;4954213;28;20030;-74
2021/04/27 04:43:35;;;;;;;3.42;1.50;;;8.00;58.30;;;;;;4954144;28;20024;-75
2021/04/27 04:46:01;;;;;;;3.50;1.85;;;8.00;58.30;;;;;;4968233;28;20061;-75
2021/04/27 04:48:26;;;;;;;2.40;1.23;;;8.00;58.30;;;;;;4953816;29;20058;-75
2021/04/27 04:50:52;;;;;;;3.45;1.40;;;8.00;58.30;;;;;;4953275;29;20032;-75
2021/04/27 04:53:18;;;;;;;4.07;1.40;;;8.10;58.40;;;;;;4954087;29;20039;-75
2021/04/27 04:55:44;;;;;;;3.83;1.58;;;8.10;58.30;;;;;;4954078;29;20309;-74
2021/04/27 04:58:10;;;;;;;4.22;1.40;;;8.10;58.40;;;;;;4953975;28;20515;-74
2021/04/27 05:00:35;;;;;;;3.28;1.80;;;8.00;58.40;;;;;;4953364;28;20106;-74
2021/04/27 05:03:01;;;;;;;3.13;1.65;;;8.00;58.40;;;;;;4953631;29;20034;-75
2021/04/27 05:05:27;;;;;;;3.83;1.92;;;8.10;58.50;;;;;;4953630;29;20361;-74
2021/04/27 05:10:34;;;;;;;2.80;1.55;;;8.10;58.50;;;;;;4981162;28;20469;-75
2021/04/27 05:12:59;;;;;;;2.38;1.75;;;8.10;58.50;;;;;;4952877;29;20122;-75
2021/04/27 05:15:25;;;;;;;5.65;1.75;;;8.10;58.50;;;;;;4952992;29;20023;-75
2021/04/27 05:17:50;;;;;;;4.60;2.05;;;8.10;58.60;;;;;;4952547;28;20027;-75
2021/04/27 05:20:17;;;;;;;7.68;1.88;;;8.10;58.60;;;;;;4952316;28;20024;-75
2021/04/27 05:22:44;;;;;;;1.83;1.63;;;8.10;59.10;;;;;;4953760;28;20027;-75
2021/04/27 05:25:11;;;;;;;3.45;1.83;;;8.10;58.60;;;;;;4952947;28;20115;-74
2021/04/27 05:27:36;;;;;;;2.35;1.25;;;8.10;58.60;;;;;;4953361;28;20055;-75
2021/04/27 05:30:03;;;;;;;4.22;2.20;;;8.10;58.60;;;;;;4952748;28;20023;-75
2021/04/27 05:32:29;;;;;;;2.47;1.90;;;8.10;58.70;;;;;;4953202;28;20031;-75
2021/04/27 05:34:55;;;;;;;4.22;1.98;;;8.10;58.60;;;;;;4952944;28;20027;-75
2021/04/27 05:37:21;;;;;;;3.13;1.50;;;8.10;58.60;;;;;;4953262;28;20024;-75
2021/04/27 05:39:47;;;;;;;5.75;1.92;;;8.20;58.70;;;;;;4953569;28;20030;-75
2021/04/27 05:42:12;;;;;;;4.78;2.33;;;8.20;58.60;;;;;;4956703;28;20505;-75
2021/04/27 05:44:38;;;;;;;4.93;2.30;;;8.20;58.60;;;;;;4957451;28;20027;-75
2021/04/27 05:47:04;;;;;;;2.33;1.60;;;8.20;58.60;;;;;;4956783;28;20019;-75
2021/04/27 05:49:29;;;;;;;3.55;1.70;;;8.20;58.60;;;;;;4957395;28;20420;-74
2021/04/27 05:51:55;;;;;;;2.92;1.60;;;8.20;58.60;;;;;;4956592;28;20042;-74
2021/04/27 05:54:21;;;;;;;2.85;1.60;;;8.20;58.50;;;;;;4956940;28;20027;-75
2021/04/27 05:56:47;;;;;;;4.25;1.60;;;8.30;58.50;;;;;;4956880;28;20024;-75
2021/04/27 05:59:16;;;;;;;2.75;1.80;;;8.30;58.50;;;;;;4955155;28;20030;-75
2021/04/27 06:01:42;;;;;;;3.83;2.25;;;8.30;58.50;;;;;;4957101;28;20058;-75
2021/04/27 06:04:08;;;;;;;5.35;1.80;;;8.30;58.50;;;;;;4956394;28;20031;-74
2021/04/27 06:06:35;;;;;;;3.35;1.73;;;8.30;58.50;;;;;;4957190;28;20439;-74
2021/04/27 06:09:06;;;;;;;2.75;1.70;;;8.40;58.50;;;;;;4954954;29;20023;-75
2021/04/27 06:11:32;;;;;;;4.95;1.77;;;8.40;58.50;;;;;;4956904;28;20472;-74
2021/04/27 06:13:57;;;;;;;3.22;1.50;;;8.40;58.50;;;;;;4955073;28;20062;-75
2021/04/27 06:16:24;;;;;;;4.03;1.60;;;8.50;58.50;;;;;;4956910;28;20031;-75
2021/04/27 06:18:50;;;;;;;3.70;2.03;;;8.50;58.30;;;;;;4956785;28;20023;-75
2021/04/27 06:21:16;;;;;;;2.40;1.55;;;8.50;58.20;;;;;;4956086;28;20078;-75
2021/04/27 06:23:42;;;;;;;2.75;1.35;;;8.50;58.10;;;;;;4956731;28;20027;-74
2021/04/27 06:26:07;;;;;;;2.55;1.70;;;8.60;58.10;;;;;;4955937;28;20046;-75
2021/04/27 06:28:33;;;;;;;4.18;1.58;;;8.60;58.00;;;;;;4956914;29;20027;-74
2021/04/27 06:30:59;;;;;;;3.15;1.55;;;8.60;57.80;;;;;;4955973;28;20062;-74
2021/04/27 06:33:25;;;;;;;3.33;1.70;;;8.70;57.80;;;;;;4956579;28;20027;-74
2021/04/27 06:35:50;;;;;;;8.65;3.45;;;8.70;57.70;;;;;;4956198;28;20042;-75
2021/04/27 06:38:19;;;;;;;5.18;2.40;;;8.80;57.60;;;;;;4955793;28;20028;-75
2021/04/27 06:40:50;;;;;;;5.43;1.90;;;8.80;57.60;;;;;;4956310;28;20034;-75
2021/04/27 06:43:17;;;;;;;4.47;2.00;;;8.80;57.40;;;;;;4955532;28;20039;-75
2021/04/27 06:45:43;;;;;;;5.15;1.83;;;8.80;57.20;;;;;;4955928;28;20035;-75
2021/04/27 06:48:09;;;;;;;4.30;1.80;;;8.90;57.10;;;;;;4955889;28;20027;-75
2021/04/27 06:50:37;;;;;;;3.22;1.58;;;8.90;57.00;;;;;;4956094;28;20143;-75
2021/04/27 06:53:03;;;;;;;3.05;1.85;;;8.90;57.00;;;;;;4955530;28;20460;-74
2021/04/27 06:55:29;;;;;;;4.72;2.53;;;9.00;57.00;;;;;;4955757;28;20029;-75
2021/04/27 06:58:08;;;;;;;2.95;1.83;;;9.00;56.90;;;;;;4955435;28;20027;-75
2021/04/27 07:00:35;;;;;;;5.47;1.98;;;9.10;56.90;;;;;;4955851;28;20023;-75
2021/04/27 07:03:02;;;;;;;3.50;1.42;;;9.20;56.80;;;;;;4955372;28;20053;-75
2021/04/27 07:05:28;;;;;;;4.57;1.75;;;9.20;57.30;;;;;;4956442;28;20032;-75
2021/04/27 07:07:54;;;;;;;2.78;1.70;;;9.20;56.60;;;;;;4956028;28;20090;-74
2021/04/27 07:10:20;;;;;;;3.13;1.58;;;9.30;56.50;;;;;;4953891;28;20031;-74
2021/04/27 07:12:45;;;;;;;3.58;1.90;;;9.30;56.40;;;;;;4955479;28;20035;-75
2021/04/27 07:15:12;;;;;;;3.47;2.15;;;9.40;56.30;;;;;;4954978;28;20019;-75
2021/04/27 07:17:37;;;;;;;2.35;1.88;;;9.40;56.20;;;;;;4955677;28;20449;-75
2021/04/27 07:20:04;;;;;;;6.15;2.08;;;9.50;56.20;;;;;;4953767;29;20047;-75
2021/04/27 07:22:31;;;;;;;2.92;1.77;;;9.50;56.20;;;;;;4955733;28;20034;-75
2021/04/27 07:24:57;;;;;;;2.97;1.98;;;9.50;56.00;;;;;;4954966;28;20045;-75
2021/04/27 07:27:23;;;;;;;3.75;1.73;;;9.60;55.90;;;;;;4954115;29;20023;-75
2021/04/27 07:29:51;;;;;;;12.57;4.35;;;9.70;55.70;;;;;;4955155;28;20111;-75
2021/04/27 07:32:17;;;;;;;2.95;1.90;;;9.80;55.70;;;;;;4954726;28;20090;-74
2021/04/27 07:34:43;;;;;;;3.53;2.15;;;9.80;55.50;;;;;;4955511;28;20031;-75
2021/04/27 07:37:09;;;;;;;3.72;2.05;;;9.90;55.40;;;;;;4953627;29;20094;-75
2021/04/27 07:39:35;;;;;;;3.08;1.90;;;10.00;55.30;;;;;;4955177;28;20027;-75
2021/04/27 07:42:03;;;;;;;3.00;1.70;;;10.00;55.20;;;;;;4953333;28;20058;-75
2021/04/27 07:44:28;;;;;;;4.68;1.75;;;10.00;55.10;;;;;;4955603;28;20019;-75
2021/04/27 07:46:55;;;;;;;4.88;2.28;;;10.10;55.20;;;;;;4955331;28;20030;-76
2021/04/27 07:49:20;;;;;;;2.95;1.73;;;10.10;55.10;;;;;;4954375;28;20038;-75
2021/04/27 07:51:46;;;;;;;3.67;1.77;;;10.20;55.00;;;;;;4954897;28;20392;-74
2021/04/27 07:54:12;;;;;;;3.42;1.65;;;10.20;54.70;;;;;;4954122;28;20496;-75
2021/04/27 07:56:37;;;;;;;3.47;1.50;;;10.30;54.70;;;;;;4954888;28;20026;-74
2021/04/27 07:59:05;;;;;;;3.75;1.35;;;10.30;54.60;;;;;;4954026;29;20051;-74
2021/04/27 08:01:33;;;;;;;4.28;1.65;;;10.40;54.40;;;;;;4954722;28;20078;-74
2021/04/27 08:03:59;;;;;;;3.38;1.42;;;10.40;54.20;;;;;;4953707;28;20381;-74
2021/04/27 08:06:25;;;;;;;2.67;1.40;;;10.50;54.00;;;;;;4953173;29;20035;-75
2021/04/27 08:08:51;;;;;;;2.60;1.50;;;10.60;53.80;;;;;;4954902;28;20119;-75
2021/04/27 08:11:17;;;;;;;3.03;1.70;;;10.60;53.30;;;;;;4954122;28;20023;-75
2021/04/27 08:13:43;;;;;;;4.15;1.70;;;10.60;53.30;;;;;;4952813;29;20133;-75
2021/04/27 08:16:09;;;;;;;3.97;1.67;;;10.70;53.20;;;;;;4953834;28;20337;-75
2021/04/27 08:18:37;;;;;;;2.47;1.60;;;10.70;53.00;;;;;;4954651;28;20027;-76
2021/04/27 08:21:05;;;;;;;1.90;1.70;;;10.70;52.80;;;;;;4952738;29;20082;-76
2021/04/27 08:23:31;;;;;;;2.13;1.30;;;10.80;52.50;;;;;;4954571;28;20023;-74
2021/04/27 08:25:58;;;;;;;3.50;1.75;;;10.80;52.30;;;;;;4954382;28;20193;-75
2021/04/27 08:28:23;;;;;;;4.80;1.60;;;10.90;52.30;;;;;;4953917;28;20487;-75
2021/04/27 08:30:49;;;;;;;2.03;1.25;;;10.90;52.10;;;;;;4953165;29;20027;-74
2021/04/27 08:33:15;;;;;;;2.85;1.52;;;11.00;51.40;;;;;;4952376;28;20032;-75
2021/04/27 08:35:41;;;;;;;2.25;1.30;;;11.00;51.20;;;;;;4953207;29;20376;-76
2021/04/27 08:38:07;;;;;;;0.93;0.85;;;11.10;51.20;;;;;;4954072;28;20494;-75
2021/04/27 08:40:33;;;;;;;3.05;1.70;;;11.10;51.00;;;;;;4954352;28;20032;-76
2021/04/27 08:42:58;;;;;;;3.38;1.48;;;11.20;50.90;;;;;;4954413;28;20033;-75
2021/04/27 08:45:24;;;;;;;2.78;1.52;;;11.20;50.90;;;;;;4953744;28;20030;-76
2021/04/27 08:47:50;;;;;;;2.03;1.20;;;11.30;50.80;;;;;;4954646;28;20058;-75
2021/04/27 08:50:17;;;;;;;3.78;1.60;;;11.30;50.50;;;;;;4952268;29;20446;-75
2021/04/27 08:52:43;;;;;;;3.17;1.33;;;11.40;50.30;;;;;;4952700;29;20085;-75
2021/04/27 08:55:10;;;;;;;3.33;1.40;;;11.40;50.10;;;;;;4952005;29;20041;-75
2021/04/27 08:57:36;;;;;;;4.25;1.50;;;11.50;50.00;;;;;;4952700;28;20035;-75
2021/04/27 09:00:09;;;;;;;3.00;1.48;;;11.50;49.80;;;;;;4954028;28;20028;-75
2021/04/27 09:02:36;;;;;;;3.80;2.03;;;11.60;49.70;;;;;;4953787;28;20191;-75
2021/04/27 09:05:03;;;;;;;5.15;1.40;;;11.60;49.50;;;;;;4952608;29;20023;-74
2021/04/27 09:07:29;;;;;;;4.25;1.50;;;11.60;49.30;;;;;;4953860;28;20035;-74
2021/04/27 09:09:58;;;;;;;4.00;1.70;;;11.70;49.10;;;;;;4953710;28;20023;-75
2021/04/27 09:12:28;;;;;;;2.83;1.30;;;11.70;48.80;;;;;;4953161;28;20071;-74
2021/04/27 09:14:56;;;;;;;2.65;1.05;;;11.80;48.80;;;;;;4952488;28;20066;-75
2021/04/27 09:17:28;;;;;;;2.20;1.27;;;11.80;48.80;;;;;;4953355;28;20119;-75
2021/04/27 09:19:56;;;;;;;3.83;1.35;;;11.90;48.80;;;;;;4953433;28;20037;-75
2021/04/27 09:22:30;;;;;;;2.33;1.15;;;11.90;48.50;;;;;;4953034;28;20468;-74
2021/04/27 09:25:02;;;;;;;2.13;1.17;;;12.00;48.20;;;;;;4953620;28;20077;-75
2021/04/27 09:27:38;;;;;;;3.65;1.20;;;12.00;48.20;;;;;;4952966;28;20036;-75
2021/04/27 09:30:09;;;;;;;3.40;1.35;;;12.10;48.20;;;;;;4953799;28;20089;-75
2021/04/27 09:32:38;;;;;;;1.90;1.20;;;12.10;48.30;;;;;;4953884;28;20063;-76
2021/04/27 09:35:23;;;;;;;4.50;1.10;;;12.10;47.50;;;;;;4953567;28;20091;-75
2021/04/27 09:38:09;;;;;;;1.88;1.13;;;12.20;47.00;;;;;;4953702;28;20027;-76
2021/04/27 09:40:57;;;;;;;3.58;1.23;;;12.20;46.70;;;;;;4952216;29;20023;-75
2021/04/27 09:43:29;;;;;;;1.77;1.20;;;12.30;46.60;;;;;;4952780;28;20051;-75
2021/04/27 09:45:56;;;;;;;2.05;0.82;;;12.30;46.30;;;;;;4953535;28;20028;-75
2021/04/27 09:48:33;;;;;;;6.07;1.30;;;12.40;46.20;;;;;;4952893;29;20027;-76
2021/04/27 09:51:15;;;;;;;5.25;1.45;;;12.50;46.00;;;;;;4953474;28;20031;-75
2021/04/27 09:53:55;;;;;;;2.17;1.20;;;12.50;45.40;;;;;;4953505;28;20035;-75
2021/04/27 09:56:56;;;;;;;2.92;1.35;;;12.50;44.90;;;;;;4952928;28;20555;-74
2021/04/27 09:59:30;;;;;;;2.58;1.50;;;12.60;45.50;;;;;;4931263;29;20031;-74
2021/04/27 10:01:58;;;;;;;5.05;1.20;;;12.70;44.70;;;;;;4945526;29;20142;-76
2021/04/27 10:04:28;;;;;;;3.45;1.33;;;12.70;44.20;;;;;;4952796;28;20510;-75
2021/04/27 10:06:56;;;;;;;6.28;1.60;;;12.80;44.30;;;;;;4953428;28;20053;-75
2021/04/27 10:09:22;;;;;;;1.48;1.00;;;12.90;44.10;;;;;;4951542;29;20035;-75
2021/04/27 10:11:49;;;;;;;1.75;1.42;;;12.90;44.10;;;;;;4953296;28;20039;-75
2021/04/27 10:14:15;;;;;;;1.88;1.10;;;13.00;43.80;;;;;;4952794;28;20023;-76
2021/04/27 10:16:41;;;;;;;2.38;1.25;;;13.10;43.30;;;;;;4952894;28;20042;-76
2021/04/27 10:19:08;;;;;;;4.13;1.50;;;13.10;43.30;;;;;;4953187;28;20023;-75
2021/04/27 10:21:35;;;;;;;3.13;1.17;;;13.10;43.10;;;;;;4952817;28;20170;-75
2021/04/27 10:24:04;;;;;;;2.35;1.20;;;13.10;43.20;;;;;;4953221;28;20022;-76
2021/04/27 10:26:34;;;;;;;2.35;1.10;;;13.20;43.30;;;;;;4953753;28;20042;-75
2021/04/27 10:29:07;;;;;;;1.77;1.05;;;13.20;43.30;;;;;;4955327;29;20446;-75
2021/04/27 10:31:40;;;;;;;1.10;1.00;;;13.30;42.80;;;;;;4956267;28;20019;-75
2021/04/27 10:34:11;;;;;;;2.50;0.98;;;13.40;42.40;;;;;;4956675;28;20042;-76
2021/04/27 10:36:40;;;;;;;2.85;1.42;;;13.50;42.30;;;;;;4956645;28;20038;-76
2021/04/27 10:39:09;;;;;;;4.22;1.05;;;13.50;42.00;;;;;;4955239;29;20019;-75
2021/04/27 10:41:44;;;;;;;4.22;1.75;;;13.60;42.00;;;;;;4956146;28;20431;-75
2021/04/27 10:44:11;;;;;;;2.63;1.10;;;13.60;41.90;;;;;;4955351;29;20464;-75
2021/04/27 10:46:40;;;;;;;2.75;1.20;;;13.70;42.00;;;;;;4956200;28;20098;-75
2021/04/27 10:49:23;;;;;;;1.20;0.90;;;13.70;42.00;;;;;;4955986;28;20023;-76
2021/04/27 10:51:49;;;;;;;3.03;1.10;;;13.80;41.40;;;;;;4956105;28;20030;-75
2021/04/27 10:54:21;;;;;;;3.42;1.50;;;13.80;41.30;;;;;;4955424;28;20031;-75
2021/04/27 10:57:05;;;;;;;2.13;1.20;;;14.00;41.40;;;;;;4956021;28;20029;-75
2021/04/27 10:59:47;;;;;;;2.65;1.17;;;14.00;41.10;;;;;;4955227;28;20027;-75
2021/04/27 11:02:16;;;;;;;4.00;1.40;;;14.10;41.20;;;;;;4955255;28;20078;-75
2021/04/27 11:04:46;;;;;;;3.00;1.27;;;14.20;41.10;;;;;;4955673;28;20106;-75
2021/04/27 11:07:24;;;;;;;5.60;1.63;;;14.30;41.10;;;;;;4955633;28;20023;-75
2021/04/27 11:10:04;;;;;;;1.58;0.95;;;14.50;40.20;;;;;;4954078;29;20027;-74
2021/04/27 11:12:30;;;;;;;3.58;1.08;;;14.60;40.00;;;;;;4955268;28;20118;-75
2021/04/27 11:14:59;;;;;;;3.60;1.60;;;14.70;39.70;;;;;;4954492;29;20122;-75
2021/04/27 11:17:36;;;;;;;2.65;1.38;;;14.90;39.50;;;;;;4955066;28;20082;-76
2021/04/27 11:20:05;;;;;;;3.75;1.15;;;15.00;39.80;;;;;;4955670;28;20031;-76
2021/04/27 11:22:33;;;;;;;2.13;1.13;;;15.10;39.10;;;;;;4955253;28;20042;-75
2021/04/27 11:25:02;;;;;;;2.22;1.40;;;15.30;39.10;;;;;;4955775;28;20058;-74
2021/04/27 11:27:33;;;;;;;1.67;1.27;;;15.40;39.00;;;;;;4954868;28;20059;-78
2021/04/27 11:30:11;;;;;;;2.80;1.00;;;15.50;39.30;;;;;;4954365;29;20439;-75
2021/04/27 11:32:39;;;;;;;2.25;1.40;;;15.70;38.70;;;;;;4953112;28;20038;-75
2021/04/27 11:35:17;;;;;;;2.03;0.88;;;15.90;38.40;;;;;;4954137;28;20043;-75
2021/04/27 11:37:56;;;;;;;1.73;0.90;;;16.00;38.10;;;;;;4954403;28;20034;-76
2021/04/27 11:40:28;;;;;;;2.67;1.20;;;16.20;37.70;;;;;;4954775;28;20078;-73
2021/04/27 11:43:00;;;;;;;2.10;1.33;;;16.30;37.70;;;;;;4954112;29;20032;-75
2021/04/27 11:45:37;;;;;;;2.00;1.20;;;16.50;38.40;;;;;;4953408;28;20027;-76
2021/04/27 11:48:04;;;;;;;1.63;1.10;;;16.70;37.50;;;;;;4955312;28;20023;-76
2021/04/27 11:50:32;;;;;;;4.60;1.48;;;16.80;37.40;;;;;;4954248;28;20424;-76
2021/04/27 11:53:16;;;;;;;4.07;1.52;;;17.00;37.30;;;;;;4954868;28;20031;-75
2021/04/27 11:55:43;;;;;;;1.35;1.00;;;17.20;37.20;;;;;;4953919;29;20028;-75
2021/04/27 11:58:17;;;;;;;4.10;1.63;;;17.40;36.10;;;;;;4953662;28;20030;-75
2021/04/27 12:00:55;;;;;;;1.85;1.40;;;17.50;36.30;;;;;;4953676;29;20067;-76
2021/04/27 12:03:32;;;;;;;2.78;1.20;;;17.60;35.80;;;;;;4954502;28;20085;-75
2021/04/27 12:06:07;;;;;;;4.32;0.90;;;17.70;35.20;;;;;;4955087;28;20090;-76
2021/04/27 12:08:34;;;;;;;1.98;0.80;;;17.80;35.40;;;;;;4954410;28;20081;-77
2021/04/27 12:11:29;;;;;;;2.67;1.20;;;17.90;34.70;;;;;;4954881;28;20029;-75
2021/04/27 12:14:12;;;;;;;1.67;1.17;;;17.90;34.80;;;;;;4954907;28;20036;-76
2021/04/27 12:16:38;;;;;;;1.98;0.90;;;18.00;34.30;;;;;;4954145;28;20247;-76
2021/04/27 12:19:19;;;;;;;3.50;1.25;;;18.00;34.60;;;;;;4954532;28;20027;-75
2021/04/27 12:22:04;;;;;;;3.20;1.60;;;18.20;34.70;;;;;;4954591;28;20031;-75
2021/04/27 12:24:42;;;;;;;1.40;0.88;;;18.30;34.80;;;;;;4954457;28;20053;-76
2021/04/27 12:27:13;;;;;;;3.42;1.30;;;18.30;34.00;;;;;;4954620;28;20074;-76
2021/04/27 12:29:56;;;;;;;2.28;0.85;;;18.30;33.90;;;;;;4953658;28;20444;-75
2021/04/27 12:32:32;;;;;;;6.95;2.00;;;18.50;34.00;;;;;;4952637;29;20055;-76
2021/04/27 12:35:07;;;;;;;4.90;1.02;;;18.50;33.40;;;;;;4954558;28;20472;-75
2021/04/27 12:37:37;;;;;;;1.73;1.00;;;18.50;33.60;;;;;;4952398;29;20038;-76
2021/04/27 12:40:15;;;;;;;2.03;0.90;;;18.60;33.70;;;;;;4954411;28;20023;-74
2021/04/27 12:42:46;;;;;;;2.30;1.05;;;18.70;33.70;;;;;;4953408;28;20054;-76
2021/04/27 12:45:12;;;;;;;1.85;1.10;;;18.70;33.60;;;;;;4954196;28;20038;-75
2021/04/27 12:47:38;;;;;;;1.67;1.13;;;18.80;33.30;;;;;;4952155;29;20023;-75
2021/04/27 12:50:07;;;;;;;5.88;1.48;;;18.80;33.10;;;;;;4953652;28;20357;-76
2021/04/27 12:52:35;;;;;;;2.47;1.48;;;18.90;33.00;;;;;;4953375;28;20023;-77
2021/04/27 12:55:24;;;;;;;2.75;1.35;;;18.80;32.80;;;;;;4952904;28;20023;-75
2021/04/27 12:57:50;;;;;;;3.00;1.00;;;18.80;33.00;;;;;;4951129;28;20074;-76
2021/04/27 13:00:19;;;;;;;2.88;1.23;;;18.80;33.00;;;;;;4954270;28;20033;-76
2021/04/27 13:02:46;;;;;;;2.63;1.02;;;18.80;32.60;;;;;;4953037;28;20189;-75